createdAt,value
2019-02-22T00:00:41.113Z,8.51
2019-02-22T00:01:41.099Z,8.46
2019-02-22T00:02:41.090Z,8.44
2019-02-22T00:03:41.081Z,8.42
2019-02-22T00:04:41.068Z,8.46
2019-02-22T00:05:41.076Z,8.46
2019-02-22T00:06:41.056Z,8.42
2019-02-22T00:07:41.036Z,8.41
2019-02-22T00:08:41.027Z,8.53
2019-02-22T00:09:49.179Z,8.44
2019-02-22T00:10:41.997Z,8.42
2019-02-22T00:11:40.991Z,8.48
2019-02-22T00:12:41.030Z,8.55
2019-02-22T00:13:40.964Z,8.49
2019-02-22T00:14:40.954Z,8.42
2019-02-22T00:15:40.944Z,8.49
2019-02-22T00:16:40.948Z,8.45
2019-02-22T00:17:40.923Z,8.49
2019-02-22T00:18:40.920Z,8.46
2019-02-22T00:19:40.897Z,8.44
2019-02-22T00:20:41.363Z,8.44
2019-02-22T00:21:40.892Z,8.48
2019-02-22T00:22:40.866Z,8.42
2019-02-22T00:23:40.852Z,8.46
2019-02-22T00:24:40.864Z,8.45
2019-02-22T00:25:40.833Z,8.48
2019-02-22T00:26:40.827Z,8.42
2019-02-22T00:27:40.808Z,8.46
2019-02-22T00:28:40.804Z,8.51
2019-02-22T00:29:40.791Z,8.46
2019-02-22T00:30:40.802Z,8.42
2019-02-22T00:31:40.765Z,8.45
2019-02-22T00:32:42.541Z,8.45
2019-02-22T00:33:40.745Z,8.42
2019-02-22T00:34:40.730Z,8.41
2019-02-22T00:35:40.768Z,8.49
2019-02-22T00:36:40.773Z,8.45
2019-02-22T00:37:40.698Z,8.45
2019-02-22T00:38:40.690Z,8.49
2019-02-22T00:39:40.673Z,8.37
2019-02-22T00:40:40.665Z,8.46
2019-02-22T00:41:40.668Z,8.48
2019-02-22T00:42:40.688Z,8.49
2019-02-22T00:43:40.630Z,8.46
2019-02-22T00:44:40.617Z,8.48
2019-02-22T00:45:40.608Z,8.48
2019-02-22T00:46:40.599Z,8.49
2019-02-22T00:47:40.612Z,8.36
2019-02-22T00:48:40.576Z,8.45
2019-02-22T00:49:40.566Z,8.49
2019-02-22T00:50:40.554Z,8.46
2019-02-22T00:51:40.540Z,8.42
2019-02-22T00:52:40.534Z,8.44
2019-02-22T00:53:40.537Z,8.45
2019-02-22T00:54:40.518Z,8.44
2019-02-22T00:55:40.496Z,8.49
2019-02-22T00:56:40.485Z,8.49
2019-02-22T00:57:40.472Z,8.42
2019-02-22T00:58:40.484Z,8.49
2019-02-22T00:59:40.461Z,8.46
2019-02-22T01:00:40.447Z,8.49
2019-02-22T01:01:40.432Z,8.44
2019-02-22T01:02:40.425Z,8.46
2019-02-22T01:03:40.405Z,8.46
2019-02-22T01:04:40.416Z,8.45
2019-02-22T01:05:40.392Z,8.42
2019-02-22T01:06:40.377Z,8.45
2019-02-22T01:07:40.364Z,8.46
2019-02-22T01:08:40.350Z,8.45
2019-02-22T01:09:40.340Z,8.49
2019-02-22T01:10:40.347Z,8.42
2019-02-22T01:11:40.317Z,8.41
2019-02-22T01:12:40.321Z,8.38
2019-02-22T01:13:40.302Z,8.46
2019-02-22T01:14:40.285Z,8.42
2019-02-22T01:15:40.295Z,8.42
2019-02-22T01:16:40.261Z,8.42
2019-02-22T01:17:40.248Z,8.48
2019-02-22T01:18:40.246Z,8.45
2019-02-22T01:19:40.234Z,8.38
2019-02-22T01:20:40.221Z,8.46
2019-02-22T01:21:40.220Z,8.38
2019-02-22T01:22:40.195Z,8.48
2019-02-22T01:23:40.188Z,8.44
2019-02-22T01:24:40.172Z,8.38
2019-02-22T01:25:40.160Z,8.44
2019-02-22T01:26:40.164Z,8.38
2019-02-22T01:27:40.141Z,8.34
2019-02-22T01:28:40.128Z,8.41
2019-02-22T01:29:40.116Z,8.49
2019-02-22T01:30:40.109Z,8.46
2019-02-22T01:31:40.096Z,8.41
2019-02-22T01:32:40.101Z,8.42
2019-02-22T01:33:40.080Z,8.42
2019-02-22T01:34:40.063Z,8.36
2019-02-22T01:35:40.138Z,8.37
2019-02-22T01:36:40.036Z,8.41
2019-02-22T01:37:40.052Z,8.42
2019-02-22T01:38:40.017Z,8.41
2019-02-22T01:39:40.012Z,8.36
2019-02-22T01:40:43.756Z,8.44
2019-02-22T01:41:39.991Z,8.41
2019-02-22T01:42:39.978Z,8.41
2019-02-22T01:43:39.978Z,8.37
2019-02-22T01:44:39.953Z,8.38
2019-02-22T01:45:39.945Z,8.38
2019-02-22T01:46:39.932Z,8.36
2019-02-22T01:47:39.924Z,8.38
2019-02-22T01:48:39.904Z,8.42
2019-02-22T01:49:39.910Z,8.42
2019-02-22T01:50:39.884Z,8.44
2019-02-22T01:51:39.869Z,8.41
2019-02-22T01:52:39.861Z,8.44
2019-02-22T01:53:39.851Z,8.48
2019-02-22T01:54:39.840Z,8.44
2019-02-22T01:55:39.846Z,8.48
2019-02-22T01:56:39.817Z,8.48
2019-02-22T01:57:39.804Z,8.45
2019-02-22T01:58:48.213Z,8.44
2019-02-22T01:59:40.783Z,8.36
2019-02-22T02:00:39.770Z,8.44
2019-02-22T02:01:39.785Z,8.38
2019-02-22T02:02:39.749Z,8.42
2019-02-22T02:03:39.736Z,8.41
2019-02-22T02:04:39.729Z,8.38
2019-02-22T02:05:39.717Z,8.41
2019-02-22T02:06:39.707Z,8.49
2019-02-22T02:07:39.719Z,8.37
2019-02-22T02:08:39.685Z,8.41
2019-02-22T02:09:39.673Z,8.38
2019-02-22T02:10:39.666Z,8.42
2019-02-22T02:11:39.649Z,8.48
2019-02-22T02:12:39.636Z,8.42
2019-02-22T02:13:39.649Z,8.46
2019-02-22T02:14:39.617Z,8.44
2019-02-22T02:15:39.609Z,8.44
2019-02-22T02:16:39.593Z,8.44
2019-02-22T02:17:39.585Z,8.37
2019-02-22T02:18:39.582Z,8.42
2019-02-22T02:19:39.570Z,8.38
2019-02-22T02:20:39.559Z,8.44
2019-02-22T02:21:39.539Z,8.42
2019-02-22T02:22:39.527Z,8.41
2019-02-22T02:23:39.517Z,8.41
2019-02-22T02:24:39.518Z,8.48
2019-02-22T02:25:39.497Z,8.38
2019-02-22T02:26:39.482Z,8.38
2019-02-22T02:27:39.484Z,8.44
2019-02-22T02:28:39.460Z,8.44
2019-02-22T02:29:39.449Z,8.42
2019-02-22T02:30:39.457Z,8.38
2019-02-22T02:31:39.424Z,8.44
2019-02-22T02:32:39.418Z,8.37
2019-02-22T02:33:39.408Z,8.36
2019-02-22T02:34:39.402Z,8.42
2019-02-22T02:35:39.382Z,8.36
2019-02-22T02:36:39.382Z,8.44
2019-02-22T02:37:39.373Z,8.37
2019-02-22T02:38:39.350Z,8.36
2019-02-22T02:39:39.336Z,8.38
2019-02-22T02:40:39.325Z,8.45
2019-02-22T02:41:39.315Z,8.38
2019-02-22T02:42:39.318Z,8.38
2019-02-22T02:43:39.305Z,8.38
2019-02-22T02:44:39.281Z,8.37
2019-02-22T02:45:39.269Z,8.37
2019-02-22T02:46:39.261Z,8.36
2019-02-22T02:47:39.262Z,8.42
2019-02-22T02:48:39.241Z,8.37
2019-02-22T02:49:39.225Z,8.38
2019-02-22T02:50:39.217Z,8.36
2019-02-22T02:51:39.230Z,8.36
2019-02-22T02:52:39.193Z,8.42
2019-02-22T02:53:39.179Z,8.44
2019-02-22T02:54:39.168Z,8.41
2019-02-22T02:55:39.162Z,8.38
2019-02-22T02:56:39.157Z,8.42
2019-02-22T02:57:39.167Z,8.41
2019-02-22T02:58:39.134Z,8.36
2019-02-22T02:59:39.117Z,8.41
2019-02-22T03:00:39.102Z,8.41
2019-02-22T03:01:39.090Z,8.44
2019-02-22T03:02:39.081Z,8.34
2019-02-22T03:03:39.087Z,8.37
2019-02-22T03:04:39.063Z,8.37
2019-02-22T03:05:39.049Z,8.38
2019-02-22T03:06:39.035Z,8.42
2019-02-22T03:07:39.031Z,8.36
2019-02-22T03:08:39.034Z,8.34
2019-02-22T03:09:39.002Z,8.37
2019-02-22T03:10:38.990Z,8.36
2019-02-22T03:11:38.985Z,8.28
2019-02-22T03:12:38.973Z,8.36
2019-02-22T03:13:38.961Z,8.34
2019-02-22T03:14:38.981Z,8.45
2019-02-22T03:15:38.948Z,8.41
2019-02-22T03:16:38.925Z,8.34
2019-02-22T03:17:38.918Z,8.44
2019-02-22T03:18:38.922Z,8.30
2019-02-22T03:19:38.890Z,8.36
2019-02-22T03:20:38.970Z,8.31
2019-02-22T03:21:38.876Z,8.33
2019-02-22T03:22:38.857Z,8.34
2019-02-22T03:23:38.849Z,8.27
2019-02-22T03:24:38.841Z,8.31
2019-02-22T03:25:38.831Z,8.33
2019-02-22T03:26:38.838Z,8.34
2019-02-22T03:27:38.814Z,8.38
2019-02-22T03:28:38.791Z,8.33
2019-02-22T03:29:38.788Z,8.36
2019-02-22T03:30:38.773Z,8.36
2019-02-22T03:31:38.762Z,8.28
2019-02-22T03:32:38.766Z,8.31
2019-02-22T03:33:38.738Z,8.34
2019-02-22T03:34:38.722Z,8.28
2019-02-22T03:35:38.713Z,8.42
2019-02-22T03:36:38.701Z,8.45
2019-02-22T03:37:38.719Z,8.33
2019-02-22T03:38:38.688Z,8.27
2019-02-22T03:39:38.673Z,8.34
2019-02-22T03:40:38.658Z,8.31
2019-02-22T03:41:38.646Z,8.33
2019-02-22T03:42:38.635Z,8.36
2019-02-22T03:43:38.648Z,8.37
2019-02-22T03:44:38.620Z,8.36
2019-02-22T03:45:38.609Z,8.34
2019-02-22T03:46:38.589Z,8.41
2019-02-22T03:47:38.581Z,8.38
2019-02-22T03:48:38.572Z,8.34
2019-02-22T03:49:38.569Z,8.36
2019-02-22T03:50:38.549Z,8.36
2019-02-22T03:51:38.532Z,8.36
2019-02-22T03:52:38.526Z,8.36
2019-02-22T03:53:38.515Z,8.42
2019-02-22T03:54:38.511Z,8.37
2019-02-22T03:55:38.495Z,8.42
2019-02-22T03:56:38.481Z,8.42
2019-02-22T03:57:38.467Z,8.37
2019-02-22T03:58:38.459Z,8.26
2019-02-22T03:59:38.463Z,8.36
2019-02-22T04:00:38.433Z,8.37
2019-02-22T04:01:38.422Z,8.38
2019-02-22T04:02:38.415Z,8.36
2019-02-22T04:03:38.405Z,8.31
2019-02-22T04:04:38.399Z,8.34
2019-02-22T04:05:38.375Z,8.33
2019-02-22T04:06:38.364Z,8.38
2019-02-22T04:07:38.363Z,8.28
2019-02-22T04:08:38.346Z,8.26
2019-02-22T04:09:38.352Z,8.33
2019-02-22T04:10:45.368Z,8.31
2019-02-22T04:11:45.667Z,8.34
2019-02-22T04:12:39.296Z,8.37
2019-02-22T04:13:38.294Z,8.33
2019-02-22T04:14:38.275Z,8.41
2019-02-22T04:15:38.282Z,8.31
2019-02-22T04:16:38.279Z,8.48
2019-02-22T04:17:38.244Z,8.38
2019-02-22T04:18:38.254Z,8.36
2019-02-22T04:19:38.239Z,8.30
2019-02-22T04:20:38.207Z,8.42
2019-02-22T04:21:38.197Z,8.34
2019-02-22T04:22:38.187Z,8.33
2019-02-22T04:23:38.176Z,8.36
2019-02-22T04:24:38.199Z,8.31
2019-02-22T04:25:38.151Z,8.33
2019-02-22T04:26:38.160Z,8.30
2019-02-22T04:27:38.135Z,8.36
2019-02-22T04:28:38.120Z,8.37
2019-02-22T04:29:38.107Z,8.30
2019-02-22T04:30:38.212Z,8.30
2019-02-22T04:31:38.090Z,8.36
2019-02-22T04:32:38.091Z,8.30
2019-02-22T04:33:38.065Z,8.38
2019-02-22T04:34:38.052Z,8.34
2019-02-22T04:35:38.044Z,8.33
2019-02-22T04:36:38.043Z,8.31
2019-02-22T04:37:38.024Z,8.31
2019-02-22T04:38:38.025Z,8.33
2019-02-22T04:39:37.996Z,8.33
2019-02-22T04:40:37.990Z,8.33
2019-02-22T04:41:37.982Z,8.31
2019-02-22T04:42:37.972Z,8.30
2019-02-22T04:43:37.971Z,8.33
2019-02-22T04:44:37.940Z,8.31
2019-02-22T04:45:37.930Z,8.27
2019-02-22T04:46:37.920Z,8.33
2019-02-22T04:47:37.912Z,8.27
2019-02-22T04:48:37.925Z,8.27
2019-02-22T04:49:37.896Z,8.33
2019-02-22T04:50:37.883Z,8.30
2019-02-22T04:51:37.865Z,8.34
2019-02-22T04:52:37.852Z,8.33
2019-02-22T04:53:37.844Z,8.33
2019-02-22T04:54:37.843Z,8.30
2019-02-22T04:55:37.831Z,8.28
2019-02-22T04:56:37.808Z,8.31
2019-02-22T04:57:37.795Z,8.34
2019-02-22T04:58:37.788Z,8.27
2019-02-22T04:59:37.777Z,8.37
2019-02-22T05:00:37.796Z,8.33
2019-02-22T05:01:37.764Z,8.30
2019-02-22T05:02:37.757Z,8.28
2019-02-22T05:03:37.735Z,8.27
2019-02-22T05:04:37.727Z,8.28
2019-02-22T05:05:37.708Z,8.31
2019-02-22T05:06:37.762Z,8.28
2019-02-22T05:07:37.689Z,8.27
2019-02-22T05:08:37.672Z,8.37
2019-02-22T05:09:37.660Z,8.27
2019-02-22T05:10:37.650Z,8.33
2019-02-22T05:11:37.644Z,8.24
2019-02-22T05:12:37.661Z,8.28
2019-02-22T05:13:37.623Z,8.27
2019-02-22T05:14:37.609Z,8.36
2019-02-22T05:15:37.653Z,8.33
2019-02-22T05:16:37.585Z,8.19
2019-02-22T05:17:37.597Z,8.36
2019-02-22T05:18:37.581Z,8.19
2019-02-22T05:19:37.549Z,8.27
2019-02-22T05:20:37.536Z,8.24
2019-02-22T05:21:37.529Z,8.31
2019-02-22T05:22:37.516Z,8.31
2019-02-22T05:23:37.516Z,8.33
2019-02-22T05:24:37.520Z,8.27
2019-02-22T05:25:37.488Z,8.24
2019-02-22T05:26:37.492Z,8.27
2019-02-22T05:27:37.460Z,8.27
2019-02-22T05:28:37.468Z,8.34
2019-02-22T05:29:37.459Z,8.27
2019-02-22T05:30:37.499Z,8.30
2019-02-22T05:31:37.416Z,8.28
2019-02-22T05:32:37.405Z,8.27
2019-02-22T05:33:37.392Z,8.20
2019-02-22T05:34:37.401Z,8.27
2019-02-22T05:35:37.374Z,8.27
2019-02-22T05:36:37.384Z,8.28
2019-02-22T05:37:37.348Z,8.20
2019-02-22T05:38:37.341Z,8.30
2019-02-22T05:39:37.329Z,8.31
2019-02-22T05:40:37.345Z,8.31
2019-02-22T05:41:37.305Z,8.27
2019-02-22T05:42:37.348Z,8.36
2019-02-22T05:43:37.288Z,8.27
2019-02-22T05:44:37.272Z,8.31
2019-02-22T05:45:37.272Z,8.31
2019-02-22T05:46:37.260Z,8.20
2019-02-22T05:47:37.236Z,8.24
2019-02-22T05:48:38.868Z,8.24
2019-02-22T05:49:37.220Z,8.27
2019-02-22T05:50:37.208Z,8.30
2019-02-22T05:51:37.208Z,8.27
2019-02-22T05:52:37.192Z,8.24
2019-02-22T05:53:37.190Z,8.33
2019-02-22T05:54:37.160Z,8.28
2019-02-22T05:55:37.148Z,8.15
2019-02-22T05:56:37.136Z,8.33
2019-02-22T05:57:37.148Z,8.26
2019-02-22T05:58:37.124Z,8.31
2019-02-22T05:59:37.126Z,8.27
2019-02-22T06:00:37.093Z,8.27
2019-02-22T06:01:37.080Z,8.31
2019-02-22T06:02:37.077Z,8.24
2019-02-22T06:03:37.079Z,8.31
2019-02-22T06:04:37.055Z,8.20
2019-02-22T06:05:37.066Z,8.28
2019-02-22T06:06:37.025Z,8.31
2019-02-22T06:07:37.018Z,8.30
2019-02-22T06:08:37.024Z,8.27
2019-02-22T06:09:36.992Z,8.27
2019-02-22T06:10:36.981Z,8.27
2019-02-22T06:11:37.001Z,8.23
2019-02-22T06:12:36.961Z,8.30
2019-02-22T06:13:36.949Z,8.27
2019-02-22T06:14:36.953Z,8.31
2019-02-22T06:15:36.929Z,8.24
2019-02-22T06:16:36.929Z,8.27
2019-02-22T06:17:36.945Z,8.30
2019-02-22T06:18:36.894Z,8.31
2019-02-22T06:19:36.881Z,8.24
2019-02-22T06:20:36.885Z,8.30
2019-02-22T06:21:36.865Z,8.26
2019-02-22T06:22:36.849Z,8.31
2019-02-22T06:23:36.861Z,8.31
2019-02-22T06:24:36.824Z,8.24
2019-02-22T06:25:36.812Z,8.23
2019-02-22T06:26:36.821Z,8.23
2019-02-22T06:27:36.792Z,8.28
2019-02-22T06:28:36.781Z,8.31
2019-02-22T06:29:36.812Z,8.27
2019-02-22T06:30:36.759Z,8.26
2019-02-22T06:31:36.745Z,8.30
2019-02-22T06:32:36.744Z,8.28
2019-02-22T06:33:36.737Z,8.28
2019-02-22T06:34:36.713Z,8.28
2019-02-22T06:35:36.745Z,8.24
2019-02-22T06:36:36.716Z,8.27
2019-02-22T06:37:36.693Z,8.28
2019-02-22T06:38:36.672Z,8.23
2019-02-22T06:39:36.657Z,8.19
2019-02-22T06:40:36.645Z,8.30
2019-02-22T06:41:36.649Z,8.28
2019-02-22T06:42:45.342Z,8.26
2019-02-22T06:43:37.613Z,8.20
2019-02-22T06:44:36.601Z,8.28
2019-02-22T06:45:36.588Z,8.30
2019-02-22T06:46:36.581Z,8.23
2019-02-22T06:47:36.588Z,8.23
2019-02-22T06:48:36.576Z,8.26
2019-02-22T06:49:36.544Z,8.24
2019-02-22T06:50:36.536Z,8.28
2019-02-22T06:51:36.528Z,8.24
2019-02-22T06:52:36.516Z,8.23
2019-02-22T06:53:36.524Z,8.19
2019-02-22T06:54:36.512Z,8.24
2019-02-22T06:55:36.496Z,8.27
2019-02-22T06:56:36.468Z,8.23
2019-02-22T06:57:36.456Z,8.23
2019-02-22T06:58:36.449Z,8.24
2019-02-22T06:59:36.441Z,8.26
2019-02-22T07:00:36.484Z,8.19
2019-02-22T07:01:36.414Z,8.20
2019-02-22T07:02:36.400Z,8.23
2019-02-22T07:03:36.392Z,8.18
2019-02-22T07:04:36.381Z,8.26
2019-02-22T07:05:36.378Z,8.20
2019-02-22T07:06:36.404Z,8.19
2019-02-22T07:07:36.353Z,8.27
2019-02-22T07:08:36.336Z,8.26
2019-02-22T07:09:36.328Z,8.19
2019-02-22T07:10:36.312Z,8.27
2019-02-22T07:11:37.820Z,8.23
2019-02-22T07:12:36.332Z,8.20
2019-02-22T07:13:36.292Z,8.24
2019-02-22T07:14:36.269Z,8.19
2019-02-22T07:15:36.289Z,8.28
2019-02-22T07:16:36.248Z,8.24
2019-02-22T07:17:36.260Z,8.28
2019-02-22T07:18:36.231Z,8.23
2019-02-22T07:19:36.216Z,8.28
2019-02-22T07:20:36.206Z,8.27
2019-02-22T07:21:44.018Z,8.27
2019-02-22T07:22:37.200Z,8.27
2019-02-22T07:23:36.196Z,8.31
2019-02-22T07:24:36.162Z,8.27
2019-02-22T07:25:36.148Z,8.31
2019-02-22T07:26:36.134Z,8.24
2019-02-22T07:27:36.129Z,8.31
2019-02-22T07:28:36.128Z,8.20
2019-02-22T07:29:36.148Z,8.26
2019-02-22T07:30:36.092Z,8.34
2019-02-22T07:31:36.080Z,8.30
2019-02-22T07:32:36.068Z,8.30
2019-02-22T07:33:36.057Z,8.30
2019-02-22T07:34:36.087Z,8.33
2019-02-22T07:35:36.112Z,8.33
2019-02-22T07:36:36.024Z,8.30
2019-02-22T07:37:36.016Z,8.31
2019-02-22T07:38:36.006Z,8.38
2019-02-22T07:39:35.992Z,8.37
2019-02-22T07:40:35.980Z,8.38
2019-02-22T07:41:35.992Z,8.38
2019-02-22T07:42:35.966Z,8.44
2019-02-22T07:43:35.952Z,8.42
2019-02-22T07:44:35.936Z,8.42
2019-02-22T07:45:35.920Z,8.46
2019-02-22T07:46:35.908Z,8.41
2019-02-22T07:47:35.940Z,8.37
2019-02-22T07:48:35.892Z,8.42
2019-02-22T07:49:35.883Z,8.44
2019-02-22T07:50:35.876Z,8.41
2019-02-22T07:51:35.860Z,8.36
2019-02-22T07:52:35.844Z,8.48
2019-02-22T07:53:35.868Z,8.42
2019-02-22T07:54:35.824Z,8.42
2019-02-22T07:55:35.816Z,8.38
2019-02-22T07:56:35.800Z,8.45
2019-02-22T07:57:35.810Z,8.48
2019-02-22T07:58:35.792Z,8.55
2019-02-22T07:59:35.817Z,8.45
2019-02-22T08:00:35.760Z,8.42
2019-02-22T08:01:46.521Z,8.44
2019-02-22T08:02:36.732Z,8.51
2019-02-22T08:03:37.399Z,8.44
2019-02-22T08:04:35.730Z,8.44
2019-02-22T08:05:35.732Z,8.45
2019-02-22T08:06:35.691Z,8.49
2019-02-22T08:07:35.678Z,8.45
2019-02-22T08:08:35.672Z,8.44
2019-02-22T08:09:35.655Z,8.44
2019-02-22T08:10:35.655Z,8.45
2019-02-22T08:11:35.684Z,8.49
2019-02-22T08:12:35.656Z,8.55
2019-02-22T08:13:35.615Z,8.49
2019-02-22T08:14:35.600Z,8.49
2019-02-22T08:15:35.590Z,8.51
2019-02-22T08:16:35.592Z,8.60
2019-02-22T08:17:35.616Z,8.56
2019-02-22T08:18:35.563Z,8.60
2019-02-22T08:19:35.552Z,8.61
2019-02-22T08:20:35.535Z,8.61
2019-02-22T08:21:35.548Z,8.66
2019-02-22T08:22:35.512Z,8.63
2019-02-22T08:23:35.529Z,8.63
2019-02-22T08:24:35.487Z,8.63
2019-02-22T08:25:35.500Z,8.64
2019-02-22T08:26:35.469Z,8.60
2019-02-22T08:27:35.455Z,8.66
2019-02-22T08:28:35.448Z,8.67
2019-02-22T08:29:38.155Z,8.67
2019-02-22T08:30:35.419Z,8.70
2019-02-22T08:31:35.446Z,8.73
2019-02-22T08:32:35.411Z,8.76
2019-02-22T08:33:35.392Z,8.84
2019-02-22T08:34:35.388Z,8.88
2019-02-22T08:35:35.364Z,8.89
2019-02-22T08:36:35.356Z,8.87
2019-02-22T08:37:35.385Z,8.94
2019-02-22T08:38:35.331Z,8.89
2019-02-22T08:39:35.363Z,9.08
2019-02-22T08:40:35.311Z,9.06
2019-02-22T08:41:35.304Z,9.10
2019-02-22T08:42:35.287Z,9.03
2019-02-22T08:43:35.277Z,9.08
2019-02-22T08:44:35.274Z,9.06
2019-02-22T08:45:35.273Z,9.02
2019-02-22T08:46:35.245Z,9.11
2019-02-22T08:47:35.248Z,9.21
2019-02-22T08:48:35.220Z,9.18
2019-02-22T08:49:35.215Z,9.21
2019-02-22T08:50:35.219Z,9.18
2019-02-22T08:51:35.203Z,9.22
2019-02-22T08:52:35.175Z,9.31
2019-02-22T08:53:35.167Z,9.14
2019-02-22T08:54:46.303Z,9.23
2019-02-22T08:55:36.802Z,9.22
2019-02-22T08:56:35.172Z,9.21
2019-02-22T08:57:35.150Z,9.19
2019-02-22T08:58:35.115Z,9.18
2019-02-22T08:59:35.107Z,9.25
2019-02-22T09:00:35.091Z,9.26
2019-02-22T09:01:35.811Z,9.16
2019-02-22T09:02:35.085Z,9.23
2019-02-22T09:03:35.076Z,9.25
2019-02-22T09:04:35.045Z,9.29
2019-02-22T09:05:35.039Z,9.32
2019-02-22T09:06:35.023Z,9.34
2019-02-22T09:07:35.011Z,9.39
2019-02-22T09:08:35.107Z,9.36
2019-02-22T09:09:34.987Z,9.41
2019-02-22T09:10:34.983Z,9.44
2019-02-22T09:11:34.968Z,9.41
2019-02-22T09:12:34.963Z,9.51
2019-02-22T09:13:43.242Z,9.46
2019-02-22T09:14:35.967Z,9.51
2019-02-22T09:15:34.928Z,9.47
2019-02-22T09:16:34.912Z,9.44
2019-02-22T09:17:34.903Z,9.48
2019-02-22T09:18:34.895Z,9.58
2019-02-22T09:19:34.883Z,9.47
2019-02-22T09:20:34.892Z,9.51
2019-02-22T09:21:34.869Z,9.56
2019-02-22T09:22:34.851Z,9.61
2019-02-22T09:23:34.836Z,9.66
2019-02-22T09:24:34.827Z,9.64
2019-02-22T09:25:34.827Z,9.65
2019-02-22T09:26:34.844Z,9.65
2019-02-22T09:27:34.839Z,9.66
2019-02-22T09:28:34.791Z,9.65
2019-02-22T09:29:34.775Z,9.73
2019-02-22T09:30:34.761Z,9.76
2019-02-22T09:31:34.764Z,9.76
2019-02-22T09:32:34.747Z,9.82
2019-02-22T09:33:34.728Z,9.80
2019-02-22T09:34:34.715Z,9.80
2019-02-22T09:35:35.155Z,9.84
2019-02-22T09:36:34.691Z,9.86
2019-02-22T09:37:34.698Z,9.84
2019-02-22T09:38:34.714Z,9.86
2019-02-22T09:39:34.659Z,9.86
2019-02-22T09:40:34.657Z,9.92
2019-02-22T09:41:34.631Z,9.89
2019-02-22T09:42:34.619Z,9.92
2019-02-22T09:43:34.623Z,9.91
2019-02-22T09:44:34.653Z,9.91
2019-02-22T09:45:34.588Z,9.92
2019-02-22T09:46:34.582Z,10.01
2019-02-22T09:47:34.571Z,9.92
2019-02-22T09:48:34.554Z,9.87
2019-02-22T09:49:34.543Z,9.87
2019-02-22T09:50:34.555Z,9.92
2019-02-22T09:51:34.532Z,9.89
2019-02-22T09:52:34.507Z,9.92
2019-02-22T09:53:34.499Z,9.89
2019-02-22T09:54:34.499Z,9.86
2019-02-22T09:55:34.475Z,9.87
2019-02-22T09:56:34.499Z,9.87
2019-02-22T09:57:34.451Z,9.83
2019-02-22T09:58:34.451Z,9.83
2019-02-22T09:59:34.432Z,9.83
2019-02-22T10:00:34.438Z,9.77
2019-02-22T10:01:34.423Z,9.69
2019-02-22T10:02:34.415Z,9.69
2019-02-22T10:03:34.387Z,9.74
2019-02-22T10:04:34.375Z,9.73
2019-02-22T10:05:34.363Z,9.79
2019-02-22T10:06:34.351Z,9.79
2019-02-22T10:07:34.367Z,9.79
2019-02-22T10:08:34.363Z,9.77
2019-02-22T10:09:34.323Z,9.66
2019-02-22T10:10:34.311Z,9.79
2019-02-22T10:11:34.304Z,9.79
2019-02-22T10:12:34.319Z,9.74
2019-02-22T10:13:34.354Z,9.82
2019-02-22T10:14:34.263Z,9.79
2019-02-22T10:15:34.247Z,9.74
2019-02-22T10:16:34.249Z,9.64
2019-02-22T10:17:34.247Z,9.79
2019-02-22T10:18:34.235Z,9.73
2019-02-22T10:19:34.250Z,9.66
2019-02-22T10:20:34.191Z,9.76
2019-02-22T10:21:34.188Z,9.79
2019-02-22T10:22:34.175Z,9.79
2019-02-22T10:23:34.175Z,9.74
2019-02-22T10:24:34.179Z,9.82
2019-02-22T10:25:34.139Z,9.82
2019-02-22T10:26:34.133Z,9.76
2019-02-22T10:27:34.116Z,9.74
2019-02-22T10:28:34.104Z,9.68
2019-02-22T10:29:34.115Z,9.79
2019-02-22T10:30:34.120Z,9.76
2019-02-22T10:31:34.071Z,9.77
2019-02-22T10:32:34.063Z,9.82
2019-02-22T10:33:36.931Z,9.74
2019-02-22T10:34:34.035Z,9.77
2019-02-22T10:35:34.039Z,9.69
2019-02-22T10:36:44.422Z,9.72
2019-02-22T10:37:35.000Z,9.77
2019-02-22T10:38:35.995Z,9.82
2019-02-22T10:39:33.996Z,9.74
2019-02-22T10:40:33.967Z,9.79
2019-02-22T10:41:33.955Z,9.89
2019-02-22T10:42:33.975Z,9.91
2019-02-22T10:43:33.931Z,9.89
2019-02-22T10:44:33.928Z,9.98
2019-02-22T10:45:33.931Z,9.91
2019-02-22T10:46:33.902Z,10.04
2019-02-22T10:47:33.896Z,10.02
2019-02-22T10:48:33.903Z,10.07
2019-02-22T10:49:33.867Z,10.09
2019-02-22T10:50:33.859Z,10.01
2019-02-22T10:51:34.266Z,10.04
2019-02-22T10:52:33.835Z,10.12
2019-02-22T10:53:33.819Z,10.07
2019-02-22T10:54:33.827Z,10.10
2019-02-22T10:55:33.803Z,10.01
2019-02-22T10:56:33.791Z,10.04
2019-02-22T10:57:33.809Z,10.07
2019-02-22T10:58:33.767Z,9.97
2019-02-22T10:59:33.754Z,10.04
2019-02-22T11:00:33.780Z,10.12
2019-02-22T11:01:33.731Z,10.04
2019-02-22T11:02:33.735Z,10.09
2019-02-22T11:03:33.747Z,10.04
2019-02-22T11:04:33.702Z,10.09
2019-02-22T11:05:33.703Z,10.13
2019-02-22T11:06:33.675Z,10.10
2019-02-22T11:07:33.675Z,10.13
2019-02-22T11:08:33.667Z,10.10
2019-02-22T11:09:33.639Z,10.10
2019-02-22T11:10:33.631Z,10.09
2019-02-22T11:11:33.615Z,10.17
2019-02-22T11:12:33.616Z,10.16
2019-02-22T11:13:33.615Z,10.16
2019-02-22T11:14:33.599Z,10.25
2019-02-22T11:15:33.571Z,10.16
2019-02-22T11:16:33.565Z,10.15
2019-02-22T11:17:33.573Z,10.22
2019-02-22T11:18:33.539Z,10.19
2019-02-22T11:19:33.564Z,10.26
2019-02-22T11:20:33.527Z,10.22
2019-02-22T11:21:33.507Z,10.26
2019-02-22T11:22:33.495Z,10.30
2019-02-22T11:23:33.486Z,10.31
2019-02-22T11:24:33.475Z,10.37
2019-02-22T11:25:33.483Z,10.40
2019-02-22T11:26:33.463Z,10.28
2019-02-22T11:27:33.435Z,10.42
2019-02-22T11:28:33.423Z,10.49
2019-02-22T11:29:33.418Z,10.56
2019-02-22T11:30:33.403Z,10.61
2019-02-22T11:31:33.416Z,10.60
2019-02-22T11:32:33.390Z,10.61
2019-02-22T11:33:33.379Z,10.64
2019-02-22T11:34:33.360Z,10.74
2019-02-22T11:35:33.349Z,10.74
2019-02-22T11:36:33.339Z,10.76
2019-02-22T11:37:33.347Z,10.74
2019-02-22T11:38:33.311Z,10.79
2019-02-22T11:39:33.323Z,10.79
2019-02-22T11:40:33.744Z,10.93
2019-02-22T11:41:33.281Z,10.90
2019-02-22T11:42:33.291Z,11.00
2019-02-22T11:43:33.284Z,11.00
2019-02-22T11:44:40.147Z,11.05
2019-02-22T11:45:34.234Z,10.99
2019-02-22T11:46:33.227Z,11.04
2019-02-22T11:47:33.211Z,11.08
2019-02-22T11:48:33.231Z,11.14
2019-02-22T11:49:33.214Z,11.14
2019-02-22T11:50:33.183Z,11.19
2019-02-22T11:51:33.171Z,11.29
2019-02-22T11:52:33.155Z,11.33
2019-02-22T11:53:33.143Z,11.36
2019-02-22T11:54:33.154Z,11.36
2019-02-22T11:55:33.161Z,11.45
2019-02-22T11:56:33.115Z,11.40
2019-02-22T11:57:33.103Z,11.43
2019-02-22T11:58:33.090Z,11.35
2019-02-22T11:59:33.095Z,11.36
2019-02-22T12:00:33.083Z,11.30
2019-02-22T12:01:33.054Z,11.29
2019-02-22T12:02:33.047Z,11.33
2019-02-22T12:03:33.031Z,11.29
2019-02-22T12:04:33.027Z,11.30
2019-02-22T12:05:33.026Z,11.33
2019-02-22T12:06:33.019Z,11.41
2019-02-22T12:07:33.023Z,11.33
2019-02-22T12:08:32.983Z,11.41
2019-02-22T12:09:32.970Z,11.41
2019-02-22T12:10:32.955Z,11.32
2019-02-22T12:11:32.945Z,11.33
2019-02-22T12:12:33.053Z,11.29
2019-02-22T12:13:33.008Z,11.29
2019-02-22T12:14:32.914Z,11.19
2019-02-22T12:15:32.899Z,11.18
2019-02-22T12:16:32.887Z,11.00
2019-02-22T12:17:32.875Z,10.96
2019-02-22T12:18:32.894Z,11.05
2019-02-22T12:19:32.863Z,11.05
2019-02-22T12:20:32.843Z,10.96
2019-02-22T12:21:32.835Z,10.97
2019-02-22T12:22:32.822Z,10.92
2019-02-22T12:23:32.807Z,10.86
2019-02-22T12:24:32.806Z,10.92
2019-02-22T12:25:32.812Z,10.89
2019-02-22T12:26:32.776Z,10.94
2019-02-22T12:27:32.764Z,10.89
2019-02-22T12:28:32.758Z,10.87
2019-02-22T12:29:32.740Z,10.82
2019-02-22T12:30:32.747Z,10.82
2019-02-22T12:31:32.731Z,10.86
2019-02-22T12:32:32.707Z,10.89
2019-02-22T12:33:32.699Z,10.79
2019-02-22T12:34:32.691Z,10.76
2019-02-22T12:35:32.679Z,10.76
2019-02-22T12:36:32.680Z,10.72
2019-02-22T12:37:32.666Z,10.68
2019-02-22T12:38:32.655Z,10.63
2019-02-22T12:39:32.627Z,10.59
2019-02-22T12:40:32.622Z,10.59
2019-02-22T12:41:32.606Z,10.48
2019-02-22T12:42:32.622Z,10.46
2019-02-22T12:43:32.588Z,10.46
2019-02-22T12:44:32.587Z,10.48
2019-02-22T12:45:32.562Z,10.41
2019-02-22T12:46:32.554Z,10.41
2019-02-22T12:47:32.538Z,10.54
2019-02-22T12:48:32.546Z,10.42
2019-02-22T12:49:32.514Z,10.46
2019-02-22T12:50:32.515Z,10.53
2019-02-22T12:51:32.490Z,10.41
2019-02-22T12:52:32.486Z,10.51
2019-02-22T12:53:32.476Z,10.48
2019-02-22T12:54:32.475Z,10.51
2019-02-22T12:55:32.451Z,10.49
2019-02-22T12:56:58.251Z,10.60
2019-02-22T12:57:33.429Z,10.57
2019-02-22T12:58:32.442Z,10.63
2019-02-22T12:59:32.402Z,10.68
2019-02-22T13:00:32.390Z,10.72
2019-02-22T13:01:32.439Z,10.67
2019-02-22T13:02:32.387Z,10.72
2019-02-22T13:03:32.364Z,10.75
2019-02-22T13:04:32.370Z,10.74
2019-02-22T13:05:32.350Z,10.79
2019-02-22T13:06:32.322Z,10.86
2019-02-22T13:07:32.319Z,10.82
2019-02-22T13:08:32.311Z,10.89
2019-02-22T13:09:36.210Z,10.90
2019-02-22T13:10:32.303Z,10.99
2019-02-22T13:11:32.267Z,10.93
2019-02-22T13:12:32.255Z,11.04
2019-02-22T13:13:32.249Z,11.05